sensor_id;sensor_type;location;lat;lon;timestamp;temperature;humidity
58951;DHT22;44730;53.158;6.398;2023-02-28T00:00:21;3.50;99.90
58951;DHT22;44730;53.158;6.398;2023-02-28T00:02:48;3.50;99.90
58951;DHT22;44730;53.158;6.398;2023-02-28T00:05:17;3.50;99.90
58951;DHT22;44730;53.158;6.398;2023-02-28T00:07:43;3.50;99.90
58951;DHT22;44730;53.158;6.398;2023-02-28T00:10:11;3.50;99.90
58951;DHT22;44730;53.158;6.398;2023-02-28T00:12:38;3.60;99.90
58951;DHT22;44730;53.158;6.398;2023-02-28T00:15:09;3.50;99.90
58951;DHT22;44730;53.158;6.398;2023-02-28T00:17:35;3.50;99.90
58951;DHT22;44730;53.158;6.398;2023-02-28T00:20:01;4.00;99.90
58951;DHT22;44730;53.158;6.398;2023-02-28T00:22:42;3.60;99.90
58951;DHT22;44730;53.158;6.398;2023-02-28T00:25:11;3.60;99.90
58951;DHT22;44730;53.158;6.398;2023-02-28T00:27:38;3.60;99.90
58951;DHT22;44730;53.158;6.398;2023-02-28T00:30:06;3.90;99.90
58951;DHT22;44730;53.158;6.398;2023-02-28T00:32:33;3.50;99.90
58951;DHT22;44730;53.158;6.398;2023-02-28T00:35:00;3.50;99.90
58951;DHT22;44730;53.158;6.398;2023-02-28T00:37:27;3.50;99.90
58951;DHT22;44730;53.158;6.398;2023-02-28T00:39:53;3.50;99.90
58951;DHT22;44730;53.158;6.398;2023-02-28T00:42:19;3.40;99.90
58951;DHT22;44730;53.158;6.398;2023-02-28T00:44:44;3.40;99.90
58951;DHT22;44730;53.158;6.398;2023-02-28T00:47:11;3.40;99.90
58951;DHT22;44730;53.158;6.398;2023-02-28T00:49:37;3.50;99.90
58951;DHT22;44730;53.158;6.398;2023-02-28T00:52:03;3.40;99.90
58951;DHT22;44730;53.158;6.398;2023-02-28T00:54:29;3.40;99.90
58951;DHT22;44730;53.158;6.398;2023-02-28T00:56:54;3.50;99.90
58951;DHT22;44730;53.158;6.398;2023-02-28T00:59:20;3.40;99.90
58951;DHT22;44730;53.158;6.398;2023-02-28T01:01:47;3.40;99.90
58951;DHT22;44730;53.158;6.398;2023-02-28T01:04:14;3.40;99.90
58951;DHT22;44730;53.158;6.398;2023-02-28T01:06:40;3.60;99.90
58951;DHT22;44730;53.158;6.398;2023-02-28T01:09:07;4.10;99.90
58951;DHT22;44730;53.158;6.398;2023-02-28T01:11:33;3.50;99.90
58951;DHT22;44730;53.158;6.398;2023-02-28T01:14:00;3.50;99.90
58951;DHT22;44730;53.158;6.398;2023-02-28T01:16:27;3.70;99.90
58951;DHT22;44730;53.158;6.398;2023-02-28T01:18:53;3.50;99.90
58951;DHT22;44730;53.158;6.398;2023-02-28T01:21:20;3.50;99.90
58951;DHT22;44730;53.158;6.398;2023-02-28T01:23:47;3.50;99.90
58951;DHT22;44730;53.158;6.398;2023-02-28T01:26:16;3.50;99.90
58951;DHT22;44730;53.158;6.398;2023-02-28T01:28:43;3.50;99.90
58951;DHT22;44730;53.158;6.398;2023-02-28T01:31:09;3.70;99.90
58951;DHT22;44730;53.158;6.398;2023-02-28T01:33:36;4.20;99.90
58951;DHT22;44730;53.158;6.398;2023-02-28T01:36:06;3.60;99.90
58951;DHT22;44730;53.158;6.398;2023-02-28T01:38:33;3.60;99.90
58951;DHT22;44730;53.158;6.398;2023-02-28T01:40:59;4.20;99.90
58951;DHT22;44730;53.158;6.398;2023-02-28T01:43:30;3.60;99.90
58951;DHT22;44730;53.158;6.398;2023-02-28T01:45:57;3.60;99.90
58951;DHT22;44730;53.158;6.398;2023-02-28T01:48:37;3.60;99.90
58951;DHT22;44730;53.158;6.398;2023-02-28T01:51:08;3.60;99.90
58951;DHT22;44730;53.158;6.398;2023-02-28T01:53:41;4.30;99.90
58951;DHT22;44730;53.158;6.398;2023-02-28T01:56:11;4.30;99.90
58951;DHT22;44730;53.158;6.398;2023-02-28T01:58:40;3.80;99.90
58951;DHT22;44730;53.158;6.398;2023-02-28T02:01:06;3.60;99.90
58951;DHT22;44730;53.158;6.398;2023-02-28T02:03:36;3.70;99.90
58951;DHT22;44730;53.158;6.398;2023-02-28T02:06:02;3.60;99.90
58951;DHT22;44730;53.158;6.398;2023-02-28T02:08:29;3.70;99.90
58951;DHT22;44730;53.158;6.398;2023-02-28T02:10:57;3.70;99.90
58951;DHT22;44730;53.158;6.398;2023-02-28T02:13:47;3.60;99.90
58951;DHT22;44730;53.158;6.398;2023-02-28T02:30:59;3.60;99.90
58951;DHT22;44730;53.158;6.398;2023-02-28T02:36:12;3.70;99.90
58951;DHT22;44730;53.158;6.398;2023-02-28T02:38:48;3.70;99.90
58951;DHT22;44730;53.158;6.398;2023-02-28T02:44:14;3.70;99.90
58951;DHT22;44730;53.158;6.398;2023-02-28T02:46:47;3.70;99.90
58951;DHT22;44730;53.158;6.398;2023-02-28T02:49:24;4.20;99.90
58951;DHT22;44730;53.158;6.398;2023-02-28T02:51:52;3.70;99.90
58951;DHT22;44730;53.158;6.398;2023-02-28T02:54:29;3.70;99.90
58951;DHT22;44730;53.158;6.398;2023-02-28T02:56:59;3.70;99.90
58951;DHT22;44730;53.158;6.398;2023-02-28T02:59:28;4.00;99.90
58951;DHT22;44730;53.158;6.398;2023-02-28T03:01:59;3.70;99.90
58951;DHT22;44730;53.158;6.398;2023-02-28T03:04:29;4.20;99.90
58951;DHT22;44730;53.158;6.398;2023-02-28T03:06:56;3.60;99.90
58951;DHT22;44730;53.158;6.398;2023-02-28T03:09:22;3.60;99.90
58951;DHT22;44730;53.158;6.398;2023-02-28T03:11:49;3.60;99.90
58951;DHT22;44730;53.158;6.398;2023-02-28T03:24:01;3.60;99.90
58951;DHT22;44730;53.158;6.398;2023-02-28T03:26:02;3.70;99.90
58951;DHT22;44730;53.158;6.398;2023-02-28T03:34:15;3.60;99.90
58951;DHT22;44730;53.158;6.398;2023-02-28T03:36:46;3.60;99.90
58951;DHT22;44730;53.158;6.398;2023-02-28T03:39:23;4.20;99.90
58951;DHT22;44730;53.158;6.398;2023-02-28T03:41:55;3.60;99.90
58951;DHT22;44730;53.158;6.398;2023-02-28T03:47:10;3.70;99.90
58951;DHT22;44730;53.158;6.398;2023-02-28T03:50:20;3.60;99.90
58951;DHT22;44730;53.158;6.398;2023-02-28T03:52:55;3.70;99.90
58951;DHT22;44730;53.158;6.398;2023-02-28T03:55:28;4.40;99.90
58951;DHT22;44730;53.158;6.398;2023-02-28T03:58:51;3.70;99.90
58951;DHT22;44730;53.158;6.398;2023-02-28T04:01:25;3.70;99.90
58951;DHT22;44730;53.158;6.398;2023-02-28T04:03:52;3.60;99.90
58951;DHT22;44730;53.158;6.398;2023-02-28T04:06:20;3.70;99.90
58951;DHT22;44730;53.158;6.398;2023-02-28T04:08:49;3.60;99.90
58951;DHT22;44730;53.158;6.398;2023-02-28T04:11:30;4.00;99.90
58951;DHT22;44730;53.158;6.398;2023-02-28T04:13:57;3.60;99.90
58951;DHT22;44730;53.158;6.398;2023-02-28T04:16:23;3.60;99.90
58951;DHT22;44730;53.158;6.398;2023-02-28T04:18:49;3.50;99.90
58951;DHT22;44730;53.158;6.398;2023-02-28T04:21:15;3.60;99.90
58951;DHT22;44730;53.158;6.398;2023-02-28T04:23:40;3.60;99.90
58951;DHT22;44730;53.158;6.398;2023-02-28T04:26:06;3.70;99.90
58951;DHT22;44730;53.158;6.398;2023-02-28T04:28:33;3.50;99.90
58951;DHT22;44730;53.158;6.398;2023-02-28T04:31:04;3.50;99.90
58951;DHT22;44730;53.158;6.398;2023-02-28T04:33:31;3.50;99.90
58951;DHT22;44730;53.158;6.398;2023-02-28T04:36:06;3.40;99.90
58951;DHT22;44730;53.158;6.398;2023-02-28T04:38:38;3.50;99.90
58951;DHT22;44730;53.158;6.398;2023-02-28T04:41:04;3.40;99.90
58951;DHT22;44730;53.158;6.398;2023-02-28T04:43:31;3.40;99.90
58951;DHT22;44730;53.158;6.398;2023-02-28T04:45:58;3.50;99.90
58951;DHT22;44730;53.158;6.398;2023-02-28T04:48:25;3.40;99.90
58951;DHT22;44730;53.158;6.398;2023-02-28T04:50:51;3.50;99.90
58951;DHT22;44730;53.158;6.398;2023-02-28T04:53:18;3.30;99.90
58951;DHT22;44730;53.158;6.398;2023-02-28T04:55:44;3.30;99.90
58951;DHT22;44730;53.158;6.398;2023-02-28T04:58:10;3.20;99.90
58951;DHT22;44730;53.158;6.398;2023-02-28T05:00:36;3.10;99.90
58951;DHT22;44730;53.158;6.398;2023-02-28T05:03:01;3.10;99.90
58951;DHT22;44730;53.158;6.398;2023-02-28T05:05:27;3.10;99.90
58951;DHT22;44730;53.158;6.398;2023-02-28T05:07:53;3.00;99.90
58951;DHT22;44730;53.158;6.398;2023-02-28T05:10:22;3.00;99.90
58951;DHT22;44730;53.158;6.398;2023-02-28T05:12:47;2.90;99.90
58951;DHT22;44730;53.158;6.398;2023-02-28T05:15:14;2.90;99.90
58951;DHT22;44730;53.158;6.398;2023-02-28T05:17:41;2.90;99.90
58951;DHT22;44730;53.158;6.398;2023-02-28T05:20:08;3.60;99.90
58951;DHT22;44730;53.158;6.398;2023-02-28T05:22:42;2.90;99.90
58951;DHT22;44730;53.158;6.398;2023-02-28T05:25:18;2.90;99.90
58951;DHT22;44730;53.158;6.398;2023-02-28T05:27:44;2.80;99.90
58951;DHT22;44730;53.158;6.398;2023-02-28T05:30:10;2.80;99.90
58951;DHT22;44730;53.158;6.398;2023-02-28T05:32:37;2.80;99.90
58951;DHT22;44730;53.158;6.398;2023-02-28T05:35:04;2.80;99.90
58951;DHT22;44730;53.158;6.398;2023-02-28T05:37:29;2.80;99.90
58951;DHT22;44730;53.158;6.398;2023-02-28T05:39:55;3.20;99.90
58951;DHT22;44730;53.158;6.398;2023-02-28T05:42:21;3.10;99.90
58951;DHT22;44730;53.158;6.398;2023-02-28T05:44:47;2.80;99.90
58951;DHT22;44730;53.158;6.398;2023-02-28T05:47:12;2.70;99.90
58951;DHT22;44730;53.158;6.398;2023-02-28T05:49:42;2.70;99.90
58951;DHT22;44730;53.158;6.398;2023-02-28T05:52:08;2.70;99.90
58951;DHT22;44730;53.158;6.398;2023-02-28T05:54:33;2.70;99.90
58951;DHT22;44730;53.158;6.398;2023-02-28T05:56:59;2.70;99.90
58951;DHT22;44730;53.158;6.398;2023-02-28T05:59:25;2.70;99.90
58951;DHT22;44730;53.158;6.398;2023-02-28T06:01:51;2.70;99.90
58951;DHT22;44730;53.158;6.398;2023-02-28T06:04:20;2.70;99.90
58951;DHT22;44730;53.158;6.398;2023-02-28T06:06:50;2.70;99.90
58951;DHT22;44730;53.158;6.398;2023-02-28T06:09:17;2.70;99.90
58951;DHT22;44730;53.158;6.398;2023-02-28T06:11:43;2.60;99.90
58951;DHT22;44730;53.158;6.398;2023-02-28T06:14:20;2.70;99.90
58951;DHT22;44730;53.158;6.398;2023-02-28T06:16:46;2.70;99.90
58951;DHT22;44730;53.158;6.398;2023-02-28T06:19:13;2.70;99.90
58951;DHT22;44730;53.158;6.398;2023-02-28T06:21:39;2.60;99.90
58951;DHT22;44730;53.158;6.398;2023-02-28T06:24:05;2.60;99.90
58951;DHT22;44730;53.158;6.398;2023-02-28T06:26:32;2.60;99.90
58951;DHT22;44730;53.158;6.398;2023-02-28T06:28:57;2.60;99.90
58951;DHT22;44730;53.158;6.398;2023-02-28T06:31:23;3.00;99.90
58951;DHT22;44730;53.158;6.398;2023-02-28T06:33:51;2.60;99.90
58951;DHT22;44730;53.158;6.398;2023-02-28T06:36:18;2.60;99.90
58951;DHT22;44730;53.158;6.398;2023-02-28T06:38:45;2.50;99.90
58951;DHT22;44730;53.158;6.398;2023-02-28T06:41:11;2.60;99.90
58951;DHT22;44730;53.158;6.398;2023-02-28T06:43:40;2.50;99.90
58951;DHT22;44730;53.158;6.398;2023-02-28T06:46:08;2.50;99.90
58951;DHT22;44730;53.158;6.398;2023-02-28T06:48:35;2.70;99.90
58951;DHT22;44730;53.158;6.398;2023-02-28T06:51:06;2.50;99.90
58951;DHT22;44730;53.158;6.398;2023-02-28T06:53:32;2.50;99.90
58951;DHT22;44730;53.158;6.398;2023-02-28T06:55:58;2.50;99.90
58951;DHT22;44730;53.158;6.398;2023-02-28T06:58:24;2.40;99.90
58951;DHT22;44730;53.158;6.398;2023-02-28T07:00:52;3.30;99.90
58951;DHT22;44730;53.158;6.398;2023-02-28T07:03:18;2.50;99.90
58951;DHT22;44730;53.158;6.398;2023-02-28T07:05:45;2.50;99.90
58951;DHT22;44730;53.158;6.398;2023-02-28T07:08:11;2.50;99.90
58951;DHT22;44730;53.158;6.398;2023-02-28T07:10:40;2.50;99.90
58951;DHT22;44730;53.158;6.398;2023-02-28T07:13:07;2.50;99.90
58951;DHT22;44730;53.158;6.398;2023-02-28T07:15:37;2.50;99.90
58951;DHT22;44730;53.158;6.398;2023-02-28T07:18:02;2.40;99.90
58951;DHT22;44730;53.158;6.398;2023-02-28T07:20:29;2.40;99.90
58951;DHT22;44730;53.158;6.398;2023-02-28T07:22:55;2.40;99.90
58951;DHT22;44730;53.158;6.398;2023-02-28T07:25:23;2.30;99.90
58951;DHT22;44730;53.158;6.398;2023-02-28T07:27:49;2.30;99.90
58951;DHT22;44730;53.158;6.398;2023-02-28T07:30:15;2.40;99.90
58951;DHT22;44730;53.158;6.398;2023-02-28T07:32:42;2.40;99.90
58951;DHT22;44730;53.158;6.398;2023-02-28T07:35:10;2.40;99.90
58951;DHT22;44730;53.158;6.398;2023-02-28T07:37:36;2.40;99.90
58951;DHT22;44730;53.158;6.398;2023-02-28T07:40:04;2.50;99.90
58951;DHT22;44730;53.158;6.398;2023-02-28T07:42:40;2.50;99.90
58951;DHT22;44730;53.158;6.398;2023-02-28T07:45:08;2.50;99.90
58951;DHT22;44730;53.158;6.398;2023-02-28T07:47:38;2.50;99.90
58951;DHT22;44730;53.158;6.398;2023-02-28T07:50:05;2.50;99.90
58951;DHT22;44730;53.158;6.398;2023-02-28T07:52:31;2.60;99.90
58951;DHT22;44730;53.158;6.398;2023-02-28T07:54:58;2.60;99.90
58951;DHT22;44730;53.158;6.398;2023-02-28T07:57:23;2.60;99.90
58951;DHT22;44730;53.158;6.398;2023-02-28T07:59:50;2.70;99.90
58951;DHT22;44730;53.158;6.398;2023-02-28T08:02:17;2.70;99.90
58951;DHT22;44730;53.158;6.398;2023-02-28T08:04:44;2.70;99.90
58951;DHT22;44730;53.158;6.398;2023-02-28T08:07:10;2.80;99.90
58951;DHT22;44730;53.158;6.398;2023-02-28T08:09:39;2.80;99.90
58951;DHT22;44730;53.158;6.398;2023-02-28T08:12:06;2.80;99.90
58951;DHT22;44730;53.158;6.398;2023-02-28T08:14:32;2.90;99.90
58951;DHT22;44730;53.158;6.398;2023-02-28T08:16:58;2.90;99.90
58951;DHT22;44730;53.158;6.398;2023-02-28T08:19:23;2.90;99.90
58951;DHT22;44730;53.158;6.398;2023-02-28T08:21:49;3.00;99.90
58951;DHT22;44730;53.158;6.398;2023-02-28T08:24:15;3.00;99.90
58951;DHT22;44730;53.158;6.398;2023-02-28T08:26:41;3.10;99.90
58951;DHT22;44730;53.158;6.398;2023-02-28T08:29:06;3.20;99.90
58951;DHT22;44730;53.158;6.398;2023-02-28T08:31:32;3.20;99.90
58951;DHT22;44730;53.158;6.398;2023-02-28T08:33:58;3.40;99.90
58951;DHT22;44730;53.158;6.398;2023-02-28T08:36:25;3.50;99.90
58951;DHT22;44730;53.158;6.398;2023-02-28T08:38:54;3.60;99.90
58951;DHT22;44730;53.158;6.398;2023-02-28T08:41:20;3.60;99.90
58951;DHT22;44730;53.158;6.398;2023-02-28T08:43:46;3.70;99.90
58951;DHT22;44730;53.158;6.398;2023-02-28T08:46:13;3.80;99.90
58951;DHT22;44730;53.158;6.398;2023-02-28T08:48:39;3.90;99.90
58951;DHT22;44730;53.158;6.398;2023-02-28T08:51:09;4.00;99.90
58951;DHT22;44730;53.158;6.398;2023-02-28T08:53:36;4.00;99.90
58951;DHT22;44730;53.158;6.398;2023-02-28T08:56:09;4.00;99.90
58951;DHT22;44730;53.158;6.398;2023-02-28T08:58:35;4.00;99.90
58951;DHT22;44730;53.158;6.398;2023-02-28T09:01:09;4.10;99.90
58951;DHT22;44730;53.158;6.398;2023-02-28T09:03:35;4.10;99.90
58951;DHT22;44730;53.158;6.398;2023-02-28T09:06:01;4.20;99.90
58951;DHT22;44730;53.158;6.398;2023-02-28T09:08:29;4.00;99.90
58951;DHT22;44730;53.158;6.398;2023-02-28T09:10:58;4.50;99.90
58951;DHT22;44730;53.158;6.398;2023-02-28T09:13:28;4.60;99.90
58951;DHT22;44730;53.158;6.398;2023-02-28T09:15:56;4.70;99.90
58951;DHT22;44730;53.158;6.398;2023-02-28T09:18:22;4.90;99.90
58951;DHT22;44730;53.158;6.398;2023-02-28T09:20:48;4.90;99.90
58951;DHT22;44730;53.158;6.398;2023-02-28T09:23:14;5.00;99.90
58951;DHT22;44730;53.158;6.398;2023-02-28T09:25:49;5.10;99.90
58951;DHT22;44730;53.158;6.398;2023-02-28T09:28:15;5.20;99.90
58951;DHT22;44730;53.158;6.398;2023-02-28T09:30:44;5.40;99.90
58951;DHT22;44730;53.158;6.398;2023-02-28T09:33:10;5.50;99.90
58951;DHT22;44730;53.158;6.398;2023-02-28T09:35:36;5.60;99.90
58951;DHT22;44730;53.158;6.398;2023-02-28T09:38:03;5.60;99.90
58951;DHT22;44730;53.158;6.398;2023-02-28T09:40:30;5.70;99.90
58951;DHT22;44730;53.158;6.398;2023-02-28T09:42:58;6.00;99.90
58951;DHT22;44730;53.158;6.398;2023-02-28T09:45:35;6.10;99.90
58951;DHT22;44730;53.158;6.398;2023-02-28T09:48:26;6.80;99.90
58951;DHT22;44730;53.158;6.398;2023-02-28T09:51:00;7.30;99.90
58951;DHT22;44730;53.158;6.398;2023-02-28T09:53:32;7.40;99.90
58951;DHT22;44730;53.158;6.398;2023-02-28T09:56:11;7.70;99.90
58951;DHT22;44730;53.158;6.398;2023-02-28T09:58:46;8.10;99.90
58951;DHT22;44730;53.158;6.398;2023-02-28T10:06:56;11.10;99.90
58951;DHT22;44730;53.158;6.398;2023-02-28T10:09:26;11.50;99.90
58951;DHT22;44730;53.158;6.398;2023-02-28T10:11:57;12.30;99.90
58951;DHT22;44730;53.158;6.398;2023-02-28T10:14:28;13.10;99.90
58951;DHT22;44730;53.158;6.398;2023-02-28T10:22:05;13.80;99.90
58951;DHT22;44730;53.158;6.398;2023-02-28T10:24:42;13.60;99.90
58951;DHT22;44730;53.158;6.398;2023-02-28T10:27:20;14.00;99.90
58951;DHT22;44730;53.158;6.398;2023-02-28T10:29:57;14.30;99.90
58951;DHT22;44730;53.158;6.398;2023-02-28T10:32:27;14.80;99.90
58951;DHT22;44730;53.158;6.398;2023-02-28T10:35:16;14.80;99.90
58951;DHT22;44730;53.158;6.398;2023-02-28T10:37:46;13.70;99.90
58951;DHT22;44730;53.158;6.398;2023-02-28T10:45:25;10.60;99.90
58951;DHT22;44730;53.158;6.398;2023-02-28T10:56:14;8.50;99.90
58951;DHT22;44730;53.158;6.398;2023-02-28T11:01:39;8.00;99.90
58951;DHT22;44730;53.158;6.398;2023-02-28T11:04:35;7.70;99.90
58951;DHT22;44730;53.158;6.398;2023-02-28T11:07:16;7.50;99.90
58951;DHT22;44730;53.158;6.398;2023-02-28T11:09:46;7.30;99.90
58951;DHT22;44730;53.158;6.398;2023-02-28T11:12:30;7.10;99.90
58951;DHT22;44730;53.158;6.398;2023-02-28T11:15:02;7.20;99.90
58951;DHT22;44730;53.158;6.398;2023-02-28T11:17:33;7.20;99.90
58951;DHT22;44730;53.158;6.398;2023-02-28T11:20:02;7.10;99.90
58951;DHT22;44730;53.158;6.398;2023-02-28T11:22:33;7.10;99.90
58951;DHT22;44730;53.158;6.398;2023-02-28T11:25:09;7.10;99.90
58951;DHT22;44730;53.158;6.398;2023-02-28T11:27:48;7.00;99.90
58951;DHT22;44730;53.158;6.398;2023-02-28T11:32:53;7.00;99.90
58951;DHT22;44730;53.158;6.398;2023-02-28T11:35:38;7.00;99.90
58951;DHT22;44730;53.158;6.398;2023-02-28T11:38:09;7.10;99.90
58951;DHT22;44730;53.158;6.398;2023-02-28T11:48:54;7.10;99.90
58951;DHT22;44730;53.158;6.398;2023-02-28T11:51:35;7.10;99.90
58951;DHT22;44730;53.158;6.398;2023-02-28T11:57:52;7.30;99.90
58951;DHT22;44730;53.158;6.398;2023-02-28T12:11:33;7.70;99.90
58951;DHT22;44730;53.158;6.398;2023-02-28T12:17:11;8.00;99.90
58951;DHT22;44730;53.158;6.398;2023-02-28T12:27:25;13.60;99.90
58951;DHT22;44730;53.158;6.398;2023-02-28T12:30:02;14.60;99.90
58951;DHT22;44730;53.158;6.398;2023-02-28T12:32:36;15.30;98.30
58951;DHT22;44730;53.158;6.398;2023-02-28T12:35:14;15.80;96.10
58951;DHT22;44730;53.158;6.398;2023-02-28T12:37:46;15.80;95.00
58951;DHT22;44730;53.158;6.398;2023-02-28T12:40:19;15.80;96.10
58951;DHT22;44730;53.158;6.398;2023-02-28T12:42:53;15.40;94.40
58951;DHT22;44730;53.158;6.398;2023-02-28T12:48:15;13.00;94.30
58951;DHT22;44730;53.158;6.398;2023-02-28T12:50:42;12.10;95.80
58951;DHT22;44730;53.158;6.398;2023-02-28T12:59:20;10.60;96.70
58951;DHT22;44730;53.158;6.398;2023-02-28T13:07:34;14.20;94.40
58951;DHT22;44730;53.158;6.398;2023-02-28T13:10:06;14.50;92.90
58951;DHT22;44730;53.158;6.398;2023-02-28T13:12:33;15.10;94.10
58951;DHT22;44730;53.158;6.398;2023-02-28T13:15:08;15.60;93.50
58951;DHT22;44730;53.158;6.398;2023-02-28T13:17:39;16.20;92.90
58951;DHT22;44730;53.158;6.398;2023-02-28T13:20:17;16.50;92.00
58951;DHT22;44730;53.158;6.398;2023-02-28T13:22:46;16.60;84.70
58951;DHT22;44730;53.158;6.398;2023-02-28T13:27:50;17.50;83.30
58951;DHT22;44730;53.158;6.398;2023-02-28T13:33:36;16.80;77.40
58951;DHT22;44730;53.158;6.398;2023-02-28T13:38:52;16.50;79.90
58951;DHT22;44730;53.158;6.398;2023-02-28T13:46:31;14.60;83.20
58951;DHT22;44730;53.158;6.398;2023-02-28T13:51:53;12.90;82.20
58951;DHT22;44730;53.158;6.398;2023-02-28T13:59:55;11.30;86.00
58951;DHT22;44730;53.158;6.398;2023-02-28T14:02:39;10.80;89.60
58951;DHT22;44730;53.158;6.398;2023-02-28T14:05:20;10.90;90.50
58951;DHT22;44730;53.158;6.398;2023-02-28T14:07:54;11.30;89.00
58951;DHT22;44730;53.158;6.398;2023-02-28T14:12:57;11.20;91.60
58951;DHT22;44730;53.158;6.398;2023-02-28T14:18:00;10.90;91.50
58951;DHT22;44730;53.158;6.398;2023-02-28T14:20:31;10.60;92.70
58951;DHT22;44730;53.158;6.398;2023-02-28T14:23:21;10.40;92.40
58951;DHT22;44730;53.158;6.398;2023-02-28T14:32:10;9.70;92.80
58951;DHT22;44730;53.158;6.398;2023-02-28T14:34:45;9.40;92.70
58951;DHT22;44730;53.158;6.398;2023-02-28T14:37:28;9.30;95.40
58951;DHT22;44730;53.158;6.398;2023-02-28T14:39:56;9.30;95.00
58951;DHT22;44730;53.158;6.398;2023-02-28T14:42:34;9.30;95.60
58951;DHT22;44730;53.158;6.398;2023-02-28T14:45:01;9.20;96.30
58951;DHT22;44730;53.158;6.398;2023-02-28T14:47:32;9.00;96.00
58951;DHT22;44730;53.158;6.398;2023-02-28T14:49:59;8.90;96.10
58951;DHT22;44730;53.158;6.398;2023-02-28T14:52:28;8.90;96.60
58951;DHT22;44730;53.158;6.398;2023-02-28T14:55:05;8.70;96.50
58951;DHT22;44730;53.158;6.398;2023-02-28T14:57:41;8.60;96.40
58951;DHT22;44730;53.158;6.398;2023-02-28T15:00:14;8.40;96.80
58951;DHT22;44730;53.158;6.398;2023-02-28T15:02:43;8.30;97.20
58951;DHT22;44730;53.158;6.398;2023-02-28T15:07:42;8.20;97.50
58951;DHT22;44730;53.158;6.398;2023-02-28T15:10:27;8.10;97.90
58951;DHT22;44730;53.158;6.398;2023-02-28T15:13:01;8.00;97.80
58951;DHT22;44730;53.158;6.398;2023-02-28T15:21:03;7.80;98.10
58951;DHT22;44730;53.158;6.398;2023-02-28T15:23:31;7.70;97.60
58951;DHT22;44730;53.158;6.398;2023-02-28T15:25:59;7.60;97.70
58951;DHT22;44730;53.158;6.398;2023-02-28T15:28:25;7.50;97.90
58951;DHT22;44730;53.158;6.398;2023-02-28T15:31:00;7.50;97.90
58951;DHT22;44730;53.158;6.398;2023-02-28T15:33:31;7.40;97.80
58951;DHT22;44730;53.158;6.398;2023-02-28T15:36:09;7.40;98.20
58951;DHT22;44730;53.158;6.398;2023-02-28T15:38:37;7.30;98.40
58951;DHT22;44730;53.158;6.398;2023-02-28T15:41:03;7.20;98.10
58951;DHT22;44730;53.158;6.398;2023-02-28T15:43:37;7.10;98.00
58951;DHT22;44730;53.158;6.398;2023-02-28T15:46:10;7.10;98.20
58951;DHT22;44730;53.158;6.398;2023-02-28T15:48:54;7.10;98.10
58951;DHT22;44730;53.158;6.398;2023-02-28T15:54:04;6.90;97.70
58951;DHT22;44730;53.158;6.398;2023-02-28T15:56:38;6.90;97.80
58951;DHT22;44730;53.158;6.398;2023-02-28T15:59:21;6.80;97.80
58951;DHT22;44730;53.158;6.398;2023-02-28T16:04:28;6.60;98.40
58951;DHT22;44730;53.158;6.398;2023-02-28T16:07:06;6.60;98.60
58951;DHT22;44730;53.158;6.398;2023-02-28T16:09:37;6.50;98.90
58951;DHT22;44730;53.158;6.398;2023-02-28T16:12:04;6.50;99.50
58951;DHT22;44730;53.158;6.398;2023-02-28T16:14:31;6.40;99.90
58951;DHT22;44730;53.158;6.398;2023-02-28T16:17:03;6.40;99.90
58951;DHT22;44730;53.158;6.398;2023-02-28T16:19:30;6.30;99.90
58951;DHT22;44730;53.158;6.398;2023-02-28T16:21:56;6.20;99.90
58951;DHT22;44730;53.158;6.398;2023-02-28T16:24:22;6.20;99.90
58951;DHT22;44730;53.158;6.398;2023-02-28T16:26:50;6.10;99.90
58951;DHT22;44730;53.158;6.398;2023-02-28T16:29:33;6.10;99.90
58951;DHT22;44730;53.158;6.398;2023-02-28T16:32:00;6.00;99.90
58951;DHT22;44730;53.158;6.398;2023-02-28T16:34:27;5.90;99.90
58951;DHT22;44730;53.158;6.398;2023-02-28T16:36:54;5.80;99.90
58951;DHT22;44730;53.158;6.398;2023-02-28T16:39:19;5.70;99.90
58951;DHT22;44730;53.158;6.398;2023-02-28T16:41:48;5.70;99.90
58951;DHT22;44730;53.158;6.398;2023-02-28T16:44:31;5.60;99.90
58951;DHT22;44730;53.158;6.398;2023-02-28T16:46:59;5.60;99.90
58951;DHT22;44730;53.158;6.398;2023-02-28T16:49:26;5.40;99.90
58951;DHT22;44730;53.158;6.398;2023-02-28T16:51:53;5.30;99.90
58951;DHT22;44730;53.158;6.398;2023-02-28T16:54:19;5.30;99.90
58951;DHT22;44730;53.158;6.398;2023-02-28T16:56:48;5.20;99.90
58951;DHT22;44730;53.158;6.398;2023-02-28T16:59:22;5.10;99.90
58951;DHT22;44730;53.158;6.398;2023-02-28T17:01:49;5.00;99.90
58951;DHT22;44730;53.158;6.398;2023-02-28T17:04:16;4.90;99.90
58951;DHT22;44730;53.158;6.398;2023-02-28T17:06:41;4.80;99.90
58951;DHT22;44730;53.158;6.398;2023-02-28T17:09:20;4.70;99.90
58951;DHT22;44730;53.158;6.398;2023-02-28T17:11:46;4.50;99.90
58951;DHT22;44730;53.158;6.398;2023-02-28T17:14:13;4.40;99.90
58951;DHT22;44730;53.158;6.398;2023-02-28T17:16:39;4.30;99.90
58951;DHT22;44730;53.158;6.398;2023-02-28T17:19:09;4.20;99.90
58951;DHT22;44730;53.158;6.398;2023-02-28T17:21:36;4.10;99.90
58951;DHT22;44730;53.158;6.398;2023-02-28T17:24:03;4.10;99.90
58951;DHT22;44730;53.158;6.398;2023-02-28T17:26:29;3.90;99.90
58951;DHT22;44730;53.158;6.398;2023-02-28T17:28:56;3.80;99.90
58951;DHT22;44730;53.158;6.398;2023-02-28T17:31:26;3.80;99.90
58951;DHT22;44730;53.158;6.398;2023-02-28T17:33:52;3.60;99.90
58951;DHT22;44730;53.158;6.398;2023-02-28T17:36:26;3.50;99.90
58951;DHT22;44730;53.158;6.398;2023-02-28T17:38:53;3.40;99.90
58951;DHT22;44730;53.158;6.398;2023-02-28T17:41:21;3.30;99.90
58951;DHT22;44730;53.158;6.398;2023-02-28T17:43:46;3.20;99.90
58951;DHT22;44730;53.158;6.398;2023-02-28T17:46:17;3.30;99.90
58951;DHT22;44730;53.158;6.398;2023-02-28T17:48:49;3.00;99.90
58951;DHT22;44730;53.158;6.398;2023-02-28T17:51:16;3.00;99.90
58951;DHT22;44730;53.158;6.398;2023-02-28T17:53:42;2.90;99.90
58951;DHT22;44730;53.158;6.398;2023-02-28T17:56:22;3.70;99.90
58951;DHT22;44730;53.158;6.398;2023-02-28T17:58:49;3.10;99.90
58951;DHT22;44730;53.158;6.398;2023-02-28T18:01:16;2.70;99.90
58951;DHT22;44730;53.158;6.398;2023-02-28T18:03:42;3.30;99.90
58951;DHT22;44730;53.158;6.398;2023-02-28T18:09:20;2.40;99.90
58951;DHT22;44730;53.158;6.398;2023-02-28T18:11:51;2.30;99.90
58951;DHT22;44730;53.158;6.398;2023-02-28T18:14:19;2.30;99.90
58951;DHT22;44730;53.158;6.398;2023-02-28T18:16:45;2.20;99.90
58951;DHT22;44730;53.158;6.398;2023-02-28T18:19:12;2.10;99.90
58951;DHT22;44730;53.158;6.398;2023-02-28T18:21:47;3.10;99.90
58951;DHT22;44730;53.158;6.398;2023-02-28T18:24:13;2.00;99.90
58951;DHT22;44730;53.158;6.398;2023-02-28T18:26:41;2.00;99.90
58951;DHT22;44730;53.158;6.398;2023-02-28T18:29:09;1.90;99.90
58951;DHT22;44730;53.158;6.398;2023-02-28T18:31:39;1.90;99.90
58951;DHT22;44730;53.158;6.398;2023-02-28T18:34:05;1.90;99.90
58951;DHT22;44730;53.158;6.398;2023-02-28T18:36:31;1.90;99.90
58951;DHT22;44730;53.158;6.398;2023-02-28T18:38:59;2.30;99.90
58951;DHT22;44730;53.158;6.398;2023-02-28T18:41:24;1.80;99.90
58951;DHT22;44730;53.158;6.398;2023-02-28T18:43:50;1.80;99.90
58951;DHT22;44730;53.158;6.398;2023-02-28T18:46:18;2.50;99.90